Time;durP1;ratioP1;P1;durP2;ratioP2;P2;SDS_P1;SDS_P2;PMS_P1;PMS_P2;Temp;Humidity;BMP_temperature;BMP_pressure;BME280_temperature;BME280_humidity;BME280_pressure;Samples;Min_cycle;Max_cycle;Signal;HPM_P1;HPM_P2
2022/02/27 00:02:04;;;;;;;;;;;;;;;6.14;59.54;100997.59;4290695;33;20334;-87
2022/02/27 00:04:29;;;;;;;;;;;;;;;6.07;59.53;101001.03;4291152;33;19973;-88
2022/02/27 00:06:55;;;;;;;;;;;;;;;6.08;59.53;100997.56;4290778;33;20557;-87
2022/02/27 00:09:20;;;;;;;;;;;;;;;6.11;59.52;100995.88;4290376;33;20004;-88
2022/02/27 00:11:48;;;;;;;;;;;;;;;6.00;59.52;100989.78;4303375;33;23161;-87
2022/02/27 00:14:13;;;;;;;;;;;;;;;6.00;59.52;100996.69;4290808;33;19977;-88
2022/02/27 00:16:38;;;;;;;;;;;;;;;5.94;59.52;100989.75;4290372;33;20076;-87
2022/02/27 00:19:04;;;;;;;;;;;;;;;6.04;59.52;100988.09;4290499;33;20019;-86
2022/02/27 00:21:29;;;;;;;;;;;;;;;5.95;59.52;100994.06;4303966;33;20375;-86
2022/02/27 00:23:54;;;;;;;;;;;;;;;5.95;59.52;100988.91;4303663;33;20800;-86
2022/02/27 00:26:20;;;;;;;;;;;;;;;5.99;59.52;100984.59;4302215;33;19985;-86
2022/02/27 00:28:45;;;;;;;;;;;;;;;5.94;59.52;100992.34;4303334;33;21118;-86
2022/02/27 00:31:10;;;;;;;;;;;;;;;5.79;59.51;100977.53;4290153;33;19988;-85
2022/02/27 00:33:35;;;;;;;;;;;;;;;5.90;59.51;100984.53;4289558;33;28943;-86
2022/02/27 00:36:00;;;;;;;;;;;;;;;5.90;59.51;100994.88;4290273;33;20016;-86
2022/02/27 00:38:26;;;;;;;;;;;;;;;5.84;59.52;100991.34;4303765;33;19984;-84
2022/02/27 00:40:51;;;;;;;;;;;;;;;5.84;59.52;100988.78;4303651;33;20008;-86
2022/02/27 00:43:16;;;;;;;;;;;;;;;5.76;59.51;100974.94;4303686;33;19964;-86
2022/02/27 00:45:41;;;;;;;;;;;;;;;5.83;59.52;100979.28;4290003;33;20236;-86
2022/02/27 00:48:07;;;;;;;;;;;;;;;5.86;59.51;100979.31;4303665;33;19988;-85
2022/02/27 00:50:32;;;;;;;;;;;;;;;5.83;59.52;100981.00;4303302;33;19973;-86
2022/02/27 00:52:57;;;;;;;;;;;;;;;5.76;59.51;100987.88;4303506;33;19973;-86
2022/02/27 00:55:23;;;;;;;;;;;;;;;5.70;59.51;100981.78;4290131;33;20366;-87
2022/02/27 00:57:48;;;;;;;;;;;;;;;5.52;59.49;100967.88;4279611;33;787692;-87
2022/02/27 01:00:14;;;;;;;;;;;;;;;5.57;59.50;100974.78;4289556;33;31952;-87
2022/02/27 01:02:39;;;;;;;;;;;;;;;5.46;59.50;100978.16;4303064;33;19991;-86
2022/02/27 01:05:04;;;;;;;;;;;;;;;5.48;59.49;100966.13;4290439;33;20031;-86
2022/02/27 01:07:29;;;;;;;;;;;;;;;5.60;59.49;100967.94;4303851;33;19985;-87
2022/02/27 01:09:55;;;;;;;;;;;;;;;5.64;59.50;100971.41;4290320;33;20251;-87
2022/02/27 01:12:20;;;;;;;;;;;;;;;5.63;59.50;100965.38;4289525;33;24877;-87
2022/02/27 01:14:46;;;;;;;;;;;;;;;5.71;59.51;100970.59;4290048;33;19988;-88
2022/02/27 01:17:12;;;;;;;;;;;;;;;5.81;59.51;100959.47;4290208;33;20044;-88
2022/02/27 01:19:37;;;;;;;;;;;;;;;5.79;59.51;100958.59;4290209;33;20065;-88
2022/02/27 01:22:02;;;;;;;;;;;;;;;5.75;59.50;100965.47;4289479;33;25739;-88
2022/02/27 01:24:27;;;;;;;;;;;;;;;5.59;59.50;100967.91;4303317;33;20005;-88
2022/02/27 01:26:53;;;;;;;;;;;;;;;5.77;59.51;100970.66;4289719;33;20548;-85
2022/02/27 01:29:18;;;;;;;;;;;;;;;5.72;59.50;100970.62;4302568;33;30720;-85
2022/02/27 01:31:43;;;;;;;;;;;;;;;5.55;59.49;100973.06;4289649;33;21557;-86
2022/02/27 01:34:08;;;;;;;;;;;;;;;5.71;59.51;100968.87;4289998;33;20019;-86
2022/02/27 01:36:33;;;;;;;;;;;;;;;5.68;59.51;100974.03;4289371;33;24436;-85
2022/02/27 01:38:59;;;;;;;;;;;;;;;5.55;59.50;100973.06;4302605;33;27370;-85
2022/02/27 01:41:25;;;;;;;;;;;;;;;5.77;59.52;100963.75;4301738;33;20368;-85
2022/02/27 01:43:50;;;;;;;;;;;;;;;5.75;59.50;100960.31;4289910;33;20028;-86
2022/02/27 01:46:15;;;;;;;;;;;;;;;5.78;59.51;100959.44;4289773;33;20008;-87
2022/02/27 01:48:40;;;;;;;;;;;;;;;5.65;59.51;100955.03;4289674;33;20047;-85
2022/02/27 01:51:06;;;;;;;;;;;;;;;5.63;59.50;100957.62;4289454;33;19988;-86
2022/02/27 01:53:32;;;;;;;;;;;;;;;5.66;59.50;100955.06;4289228;33;23424;-86
2022/02/27 01:55:57;;;;;;;;;;;;;;;5.58;59.50;100953.28;4289711;33;20384;-88
2022/02/27 01:58:25;;;;;;;;;;;;;;;5.65;59.50;100950.75;4289653;33;20034;-87
2022/02/27 02:00:50;;;;;;;;;;;;;;;5.69;59.51;100957.69;4289621;33;19988;-87
2022/02/27 02:03:15;;;;;;;;;;;;;;;5.64;59.50;100953.31;4302741;33;20008;-87
2022/02/27 02:05:40;;;;;;;;;;;;;;;5.73;59.50;100946.50;4302946;33;20331;-88
2022/02/27 02:08:06;;;;;;;;;;;;;;;5.67;59.50;100950.75;4289067;33;25259;-86
2022/02/27 02:10:31;;;;;;;;;;;;;;;5.46;59.48;100954.06;4289750;33;20315;-88
2022/02/27 02:12:56;;;;;;;;;;;;;;;5.59;59.50;100949.84;4289579;33;20275;-87
2022/02/27 02:15:21;;;;;;;;;;;;;;;5.55;59.50;100946.38;4288188;33;19999;-87
2022/02/27 02:17:47;;;;;;;;;;;;;;;5.51;59.49;100947.22;4289075;33;24887;-87
2022/02/27 02:20:15;;;;;;;;;;;;;;;5.63;59.50;100949.00;4289716;33;19992;-87
2022/02/27 02:22:41;;;;;;;;;;;;;;;5.66;59.50;100941.28;4289396;33;20022;-87
2022/02/27 02:25:08;;;;;;;;;;;;;;;5.62;59.50;100942.97;4289259;33;20123;-86
2022/02/27 02:27:33;;;;;;;;;;;;;;;5.53;59.49;100951.53;4289538;33;19984;-86
2022/02/27 02:29:58;;;;;;;;;;;;;;;5.50;59.49;100950.66;4289083;33;19969;-87
2022/02/27 02:32:23;;;;;;;;;;;;;;;5.72;59.50;100949.94;4302423;33;20032;-87
2022/02/27 02:34:48;;;;;;;;;;;;;;;5.75;59.50;100941.34;4302070;33;20381;-87
2022/02/27 02:37:14;;;;;;;;;;;;;;;5.72;59.51;100949.09;4302200;33;19991;-88
2022/02/27 02:39:39;;;;;;;;;;;;;;;5.71;59.51;100942.19;4288882;33;20044;-88
2022/02/27 02:42:04;;;;;;;;;;;;;;;5.63;59.50;100942.13;4289190;33;20029;-88
2022/02/27 02:44:29;;;;;;;;;;;;;;;5.74;59.50;100944.78;4289192;33;20783;-88
2022/02/27 02:46:55;;;;;;;;;;;;;;;5.69;59.51;100947.34;4288741;33;20043;-88
2022/02/27 02:49:20;;;;;;;;;;;;;;;5.73;59.50;100959.44;4288685;33;20058;-87
2022/02/27 02:51:45;;;;;;;;;;;;;;;5.69;59.51;100949.94;4288931;33;20027;-88
2022/02/27 02:54:10;;;;;;;;;;;;;;;5.76;59.50;100948.25;4288953;33;20609;-87
2022/02/27 02:56:36;;;;;;;;;;;;;;;5.75;59.50;100946.53;4288943;33;20019;-88
2022/02/27 02:59:01;;;;;;;;;;;;;;;5.67;59.50;100940.41;4289064;33;19992;-87
2022/02/27 03:01:26;;;;;;;;;;;;;;;5.52;59.49;100939.47;4289089;33;20007;-87
2022/02/27 03:03:52;;;;;;;;;;;;;;;5.61;59.49;100945.53;4288932;33;20007;-88
2022/02/27 03:06:17;;;;;;;;;;;;;;;5.51;59.49;100942.03;4288991;33;19989;-87
2022/02/27 03:08:43;;;;;;;;;;;;;;;5.55;59.50;100960.16;4289164;33;20009;-87
2022/02/27 03:11:08;;;;;;;;;;;;;;;5.42;59.49;100955.72;4288904;33;20040;-87
2022/02/27 03:13:33;;;;;;;;;;;;;;;5.33;59.49;100959.97;4288571;33;20035;-86
2022/02/27 03:15:59;;;;;;;;;;;;;;;5.43;59.49;100954.88;4300674;33;20015;-86
2022/02/27 03:18:24;;;;;;;;;;;;;;;5.51;59.49;100949.78;4301552;33;20768;-86
2022/02/27 03:20:49;;;;;;;;;;;;;;;5.40;59.49;100947.09;4300606;33;20007;-86
2022/02/27 03:23:14;;;;;;;;;;;;;;;5.36;59.48;100947.06;4301502;33;30783;-86
2022/02/27 03:25:39;;;;;;;;;;;;;;;5.45;59.49;100945.44;4288958;33;20060;-86
2022/02/27 03:28:05;;;;;;;;;;;;;;;5.42;59.49;100937.66;4304270;33;20306;-87
2022/02/27 03:30:30;;;;;;;;;;;;;;;5.55;59.50;100949.81;4291185;33;20110;-86
2022/02/27 03:32:56;;;;;;;;;;;;;;;5.54;59.49;100953.25;4290935;33;20059;-87
2022/02/27 03:35:21;;;;;;;;;;;;;;;5.68;59.50;100947.31;4302810;33;19996;-85
2022/02/27 03:37:50;;;;;;;;;;;;;;;5.44;59.49;100958.31;4291098;33;19980;-85
2022/02/27 03:40:15;;;;;;;;;;;;;;;5.39;59.49;100960.00;4303078;33;20004;-85
2022/02/27 03:42:40;;;;;;;;;;;;;;;5.45;59.49;100955.78;4290889;33;20001;-86
2022/02/27 03:45:06;;;;;;;;;;;;;;;5.44;59.49;100958.31;4304179;33;20311;-85
2022/02/27 03:47:31;;;;;;;;;;;;;;;5.47;59.49;100960.94;4290816;33;20020;-84
2022/02/27 03:49:56;;;;;;;;;;;;;;;5.39;59.49;100966.03;4290823;33;20368;-87
2022/02/27 03:52:21;;;;;;;;;;;;;;;5.37;59.48;100957.41;4290277;33;24475;-86
2022/02/27 03:54:46;;;;;;;;;;;;;;;5.38;59.48;100958.28;4290430;33;20022;-86
2022/02/27 03:57:12;;;;;;;;;;;;;;;5.37;59.48;100959.13;4290774;33;19988;-89
2022/02/27 03:59:37;;;;;;;;;;;;;;;5.45;59.49;100962.66;4290348;33;20000;-87
2022/02/27 04:02:02;;;;;;;;;;;;;;;5.40;59.49;100967.75;4303906;33;19988;-87
2022/02/27 04:04:27;;;;;;;;;;;;;;;5.44;59.49;100964.38;4303663;33;19991;-86
2022/02/27 04:06:53;;;;;;;;;;;;;;;5.40;59.49;100959.16;4290438;33;19996;-86
2022/02/27 04:09:18;;;;;;;;;;;;;;;5.28;59.48;100962.50;4303767;33;20371;-84
2022/02/27 04:11:43;;;;;;;;;;;;;;;5.18;59.48;100963.25;4290480;33;20023;-87
2022/02/27 04:14:09;;;;;;;;;;;;;;;5.16;59.46;100962.37;4290174;33;20018;-86
2022/02/27 04:16:34;;;;;;;;;;;;;;;5.13;59.47;100967.53;4303689;33;20235;-86
2022/02/27 04:18:59;;;;;;;;;;;;;;;5.03;59.47;100965.72;4303814;33;20000;-87
2022/02/27 04:21:24;;;;;;;;;;;;;;;5.14;59.47;100956.34;4303795;33;20024;-87
2022/02/27 04:23:50;;;;;;;;;;;;;;;5.13;59.47;100957.19;4290291;33;20385;-87
2022/02/27 04:26:15;;;;;;;;;;;;;;;5.12;59.47;100964.06;4290245;33;19988;-88
2022/02/27 04:28:40;;;;;;;;;;;;;;;5.07;59.47;100962.31;4290269;33;20029;-87
2022/02/27 04:31:05;;;;;;;;;;;;;;;5.11;59.47;100957.19;4290060;33;20286;-88
2022/02/27 04:33:31;;;;;;;;;;;;;;;5.17;59.47;100974.44;4289404;33;34199;-87
2022/02/27 04:35:56;;;;;;;;;;;;;;;5.02;59.47;100963.97;4290090;33;20372;-86
2022/02/27 04:38:21;;;;;;;;;;;;;;;5.05;59.46;100976.91;4289144;33;20004;-89
2022/02/27 04:40:46;;;;;;;;;;;;;;;5.17;59.48;100971.84;4290161;33;19988;-88
2022/02/27 04:43:12;;;;;;;;;;;;;;;5.13;59.47;100994.19;4290081;33;20000;-88
2022/02/27 04:45:37;;;;;;;;;;;;;;;5.16;59.48;100981.31;4303573;33;20021;-87
2022/02/27 04:48:02;;;;;;;;;;;;;;;5.23;59.47;100975.38;4289710;33;25568;-88
2022/02/27 04:50:27;;;;;;;;;;;;;;;5.24;59.48;100974.53;4290276;33;20027;-88
2022/02/27 04:52:52;;;;;;;;;;;;;;;5.27;59.48;100980.56;4290242;33;20046;-89
2022/02/27 04:55:18;;;;;;;;;;;;;;;5.29;59.47;100979.72;4290240;33;20004;-88
2022/02/27 04:57:43;;;;;;;;;;;;;;;5.21;59.47;100991.72;4303712;33;20116;-89
2022/02/27 05:00:09;;;;;;;;;;;;;;;5.10;59.47;100993.31;4290499;33;20019;-90
2022/02/27 05:02:34;;;;;;;;;;;;;;;5.19;59.48;100994.25;4290593;33;20330;-90
2022/02/27 05:04:59;;;;;;;;;;;;;;;5.24;59.47;100996.91;4290623;33;20323;-90
2022/02/27 05:07:24;;;;;;;;;;;;;;;5.21;59.47;100997.75;4290335;33;20020;-87
2022/02/27 05:09:50;;;;;;;;;;;;;;;5.26;59.48;101002.06;4289838;33;20027;-87
2022/02/27 05:12:15;;;;;;;;;;;;;;;5.20;59.48;101005.44;4289905;33;20007;-87
2022/02/27 05:14:40;;;;;;;;;;;;;;;5.23;59.47;101008.94;4290174;33;20291;-88
2022/02/27 05:17:05;;;;;;;;;;;;;;;5.18;59.48;101008.00;4290137;33;20003;-87
2022/02/27 05:19:31;;;;;;;;;;;;;;;5.16;59.48;101001.97;4290062;33;20019;-89
2022/02/27 05:21:56;;;;;;;;;;;;;;;5.10;59.47;101014.81;4289918;33;19999;-88
2022/02/27 05:24:21;;;;;;;;;;;;;;;5.13;59.47;101011.41;4289944;33;20338;-87
2022/02/27 05:26:46;;;;;;;;;;;;;;;5.15;59.47;101026.03;4289750;33;20011;-88
2022/02/27 05:29:12;;;;;;;;;;;;;;;5.17;59.48;101023.47;4290074;33;19989;-88
2022/02/27 05:31:38;;;;;;;;;;;;;;;5.16;59.47;101027.78;4303067;33;19996;-86
2022/02/27 05:34:03;;;;;;;;;;;;;;;5.13;59.47;101025.16;4289803;33;20561;-85
2022/02/27 05:36:28;;;;;;;;;;;;;;;5.08;59.46;101026.84;4301756;33;20015;-89
2022/02/27 05:38:54;;;;;;;;;;;;;;;5.09;59.47;101036.31;4289612;33;20026;-90
2022/02/27 05:41:19;;;;;;;;;;;;;;;5.05;59.47;101036.25;4289322;33;28605;-87
2022/02/27 05:43:44;;;;;;;;;;;;;;;5.05;59.47;101052.62;4303150;33;19987;-87
2022/02/27 05:46:09;;;;;;;;;;;;;;;5.22;59.47;101045.94;4302666;33;24986;-87
2022/02/27 05:48:34;;;;;;;;;;;;;;;5.13;59.47;101053.56;4302976;33;20273;-87
2022/02/27 05:51:00;;;;;;;;;;;;;;;5.28;59.48;101046.84;4302997;33;19980;-88
2022/02/27 05:53:25;;;;;;;;;;;;;;;5.36;59.48;101045.19;4289769;33;20000;-86
2022/02/27 05:55:56;;;;;;;;;;;;;;;5.32;59.49;101052.03;4302829;33;20551;-87
2022/02/27 05:58:21;;;;;;;;;;;;;;;5.32;59.49;101058.91;4290533;33;19988;-87
2022/02/27 06:00:46;;;;;;;;;;;;;;;5.35;59.48;101051.19;4289764;33;20011;-87
2022/02/27 06:03:12;;;;;;;;;;;;;;;5.47;59.49;101072.84;4289506;33;20370;-87
2022/02/27 06:05:37;;;;;;;;;;;;;;;5.51;59.49;101068.59;4289559;33;20023;-87
2022/02/27 06:08:02;;;;;;;;;;;;;;;5.40;59.49;101071.03;4289546;33;20019;-88
2022/02/27 06:10:27;;;;;;;;;;;;;;;5.60;59.49;101073.81;4289423;33;19980;-87
2022/02/27 06:12:53;;;;;;;;;;;;;;;5.54;59.50;101089.28;4302795;33;19999;-87
2022/02/27 06:15:18;;;;;;;;;;;;;;;5.52;59.49;101080.66;4302676;33;20315;-88
2022/02/27 06:17:43;;;;;;;;;;;;;;;5.44;59.48;101082.25;4289390;33;20063;-87
2022/02/27 06:20:09;;;;;;;;;;;;;;;5.43;59.49;101081.41;4302656;33;20555;-87
2022/02/27 06:22:39;;;;;;;;;;;;;;;5.60;59.49;101083.28;4289221;33;20020;-88
2022/02/27 06:25:04;;;;;;;;;;;;;;;5.74;59.50;101077.41;4302636;33;19992;-87
2022/02/27 06:27:29;;;;;;;;;;;;;;;5.69;59.50;101083.41;4302984;33;20091;-89
2022/02/27 06:29:54;;;;;;;;;;;;;;;5.76;59.51;101091.22;4289991;33;20033;-90
2022/02/27 06:32:20;;;;;;;;;;;;;;;5.72;59.50;101099.78;4289682;33;20002;-91
2022/02/27 06:34:45;;;;;;;;;;;;;;;5.70;59.51;101087.72;4290090;33;20052;-92
2022/02/27 06:37:10;;;;;;;;;;;;;;;5.78;59.51;101093.81;4290773;33;19984;-93
2022/02/27 06:39:35;;;;;;;;;;;;;;;5.69;59.51;101097.19;4291410;33;20012;-92
2022/02/27 06:42:01;;;;;;;;;;;;;;;5.79;59.50;101096.41;4291673;33;19984;-92
2022/02/27 06:44:26;;;;;;;;;;;;;;;5.95;59.52;101099.16;4291281;33;20315;-91
2022/02/27 06:46:52;;;;;;;;;;;;;;;6.09;59.52;101097.53;4289794;33;20323;-89
2022/02/27 06:49:17;;;;;;;;;;;;;;;6.02;59.53;101103.50;4302280;33;20303;-90
2022/02/27 06:51:42;;;;;;;;;;;;;;;6.09;59.53;101094.94;4288548;33;25647;-89
2022/02/27 06:54:07;;;;;;;;;;;;;;;6.09;59.53;101093.22;4289200;33;19993;-91
2022/02/27 06:56:32;;;;;;;;;;;;;;;6.07;59.53;101087.19;4289059;33;20337;-88
2022/02/27 06:58:58;;;;;;;;;;;;;;;6.04;59.52;101094.06;4288981;33;19995;-88
2022/02/27 07:01:23;;;;;;;;;;;;;;;6.05;59.53;101101.81;4302929;33;20008;-89
2022/02/27 07:03:48;;;;;;;;;;;;;;;6.01;59.52;101099.19;4303973;33;19981;-88
2022/02/27 07:06:13;;;;;;;;;;;;;;;6.10;59.53;101097.53;4304135;33;20421;-88
2022/02/27 07:08:39;;;;;;;;;;;;;;;6.01;59.52;101112.13;4303405;33;21488;-89
2022/02/27 07:11:04;;;;;;;;;;;;;;;6.03;59.52;101113.88;4290082;33;19980;-91
2022/02/27 07:13:30;;;;;;;;;;;;;;;6.10;59.52;101102.72;4290111;33;20725;-87
2022/02/27 07:15:55;;;;;;;;;;;;;;;5.97;59.52;101115.53;4304061;33;20519;-87
2022/02/27 07:18:20;;;;;;;;;;;;;;;5.71;59.51;101107.53;4290457;33;19984;-89
2022/02/27 07:20:45;;;;;;;;;;;;;;;5.91;59.52;101100.81;4290471;33;20304;-89
2022/02/27 07:23:10;;;;;;;;;;;;;;;5.87;59.51;101117.12;4290640;33;20055;-88
2022/02/27 07:25:36;;;;;;;;;;;;;;;5.99;59.52;101112.13;4290229;33;22232;-87
2022/02/27 07:28:01;;;;;;;;;;;;;;;5.99;59.52;101117.28;4314719;33;20020;-89
2022/02/27 07:30:26;;;;;;;;;;;;;;;5.87;59.51;101119.72;4290417;33;19973;-87
2022/02/27 07:32:51;;;;;;;;;;;;;;;6.00;59.52;101110.41;4290235;33;20361;-88
2022/02/27 07:35:17;;;;;;;;;;;;;;;6.01;59.53;101118.16;4290070;33;20579;-87
2022/02/27 07:37:42;;;;;;;;;;;;;;;6.18;59.52;101120.03;4303869;33;20392;-87
2022/02/27 07:40:07;;;;;;;;;;;;;;;6.33;59.54;101113.22;4290317;33;19992;-88
2022/02/27 07:42:32;;;;;;;;;;;;;;;6.43;59.55;101116.75;4290366;33;20029;-88
2022/02/27 07:44:58;;;;;;;;;;;;;;;6.47;59.55;101119.38;4290489;33;20010;-88
2022/02/27 07:47:23;;;;;;;;;;;;;;;6.37;59.54;101117.56;4284538;33;20356;-88
2022/02/27 07:49:48;;;;;;;;;;;;;;;6.41;59.54;101124.50;4290522;33;20274;-88
2022/02/27 07:52:14;;;;;;;;;;;;;;;6.53;59.55;101121.13;4303278;33;27200;-88
2022/02/27 07:54:39;;;;;;;;;;;;;;;6.47;59.55;101126.25;4303718;33;20022;-88
2022/02/27 07:57:04;;;;;;;;;;;;;;;6.53;59.55;101115.94;4314189;33;24360;-89
2022/02/27 07:59:29;;;;;;;;;;;;;;;6.60;59.56;101115.13;4314436;33;20255;-88
2022/02/27 08:01:54;;;;;;;;;;;;;;;6.76;59.56;101113.50;4301906;33;27153;-89
2022/02/27 08:04:20;;;;;;;;;;;;;;;6.78;59.57;101128.16;4290216;33;20019;-88
2022/02/27 08:06:45;;;;;;;;;;;;;;;6.70;59.55;101116.06;4303911;33;20323;-88
2022/02/27 08:09:11;;;;;;;;;;;;;;;6.68;59.56;101118.63;4303969;33;20008;-89
2022/02/27 08:11:36;;;;;;;;;;;;;;;6.64;59.55;101157.44;4290471;33;19988;-90
2022/02/27 08:14:01;;;;;;;;;;;;;;;6.66;59.56;101135.03;4289476;33;20355;-89
2022/02/27 08:16:26;;;;;;;;;;;;;;;6.77;59.56;101128.16;4304054;33;20380;-88
2022/02/27 08:18:52;;;;;;;;;;;;;;;6.79;59.56;101123.88;4302310;33;20015;-89
2022/02/27 08:21:17;;;;;;;;;;;;;;;6.81;59.57;101114.38;4289605;33;29359;-90
2022/02/27 08:23:42;;;;;;;;;;;;;;;6.91;59.57;101134.28;4303683;33;20539;-89
2022/02/27 08:26:07;;;;;;;;;;;;;;;6.81;59.57;101119.56;4303548;33;19980;-89
2022/02/27 08:28:33;;;;;;;;;;;;;;;6.90;59.57;101122.22;4289595;33;31361;-88
2022/02/27 08:30:58;;;;;;;;;;;;;;;6.97;59.58;101112.75;4290077;33;19996;-89
2022/02/27 08:33:24;;;;;;;;;;;;;;;7.26;59.59;101118.03;4290008;33;20022;-89
2022/02/27 08:35:49;;;;;;;;;;;;;;;7.28;59.59;101121.47;4314343;33;19981;-88
2022/02/27 08:38:14;;;;;;;;;;;;;;;7.28;59.59;101119.75;4303310;33;20361;-88
2022/02/27 08:40:39;;;;;;;;;;;;;;;7.47;59.61;101115.50;4303474;33;20272;-87
2022/02/27 08:43:05;;;;;;;;;;;;;;;7.37;59.60;101117.22;4303499;33;20028;-87
2022/02/27 08:45:31;;;;;;;;;;;;;;;7.44;59.60;101125.00;4302948;33;24126;-86
2022/02/27 08:47:56;;;;;;;;;;;;;;;7.68;59.61;101122.47;4303531;33;20056;-86
2022/02/27 08:50:21;;;;;;;;;;;;;;;7.72;59.62;101120.72;4303537;33;20331;-87
2022/02/27 08:52:47;;;;;;;;;;;;;;;7.78;59.63;101137.16;4290085;33;20044;-86
2022/02/27 08:55:12;;;;;;;;;;;;;;;7.88;59.63;101125.94;4303426;33;20012;-86
2022/02/27 08:57:37;;;;;;;;;;;;;;;7.91;59.62;101112.13;4290257;33;20024;-87
2022/02/27 09:00:06;;;;;;;;;;;;;;;8.09;59.64;101124.22;4290175;33;20051;-86
2022/02/27 09:02:31;;;;;;;;;;;;;;;8.12;59.64;101117.31;4290145;33;20005;-86
2022/02/27 09:04:56;;;;;;;;;;;;;;;8.34;59.66;101109.56;4303617;33;19992;-86
2022/02/27 09:07:22;;;;;;;;;;;;;;;8.33;59.65;101116.44;4289943;33;20252;-86
2022/02/27 09:09:47;;;;;;;;;;;;;;;8.62;59.67;101116.41;4290052;33;20048;-86
2022/02/27 09:12:12;;;;;;;;;;;;;;;8.66;59.68;101110.34;4289458;33;20039;-87
2022/02/27 09:14:37;;;;;;;;;;;;;;;8.86;59.68;101107.69;4289809;33;19981;-88
2022/02/27 09:17:03;;;;;;;;;;;;;;;8.90;59.69;101130.19;4289826;33;19993;-86
2022/02/27 09:19:28;;;;;;;;;;;;;;;8.85;59.68;101106.84;4289985;33;20319;-87
2022/02/27 09:21:54;;;;;;;;;;;;;;;8.63;59.67;101115.56;4303226;33;20070;-87
2022/02/27 09:24:19;;;;;;;;;;;;;;;8.79;59.67;101114.66;4289424;33;19985;-87
2022/02/27 09:26:45;;;;;;;;;;;;;;;8.69;59.67;101115.53;4289434;33;22663;-87
2022/02/27 09:29:13;;;;;;;;;;;;;;;8.63;59.67;101110.34;4290060;33;19992;-87
2022/02/27 09:31:38;;;;;;;;;;;;;;;8.75;59.68;101115.50;4301872;33;20011;-86
2022/02/27 09:34:04;;;;;;;;;;;;;;;8.82;59.69;101111.19;4301868;33;20326;-86
2022/02/27 09:36:29;;;;;;;;;;;;;;;8.97;59.69;101111.09;4289872;33;19995;-86
2022/02/27 09:38:55;;;;;;;;;;;;;;;9.24;59.70;101120.53;4303125;33;20355;-85
2022/02/27 09:41:21;;;;;;;;;;;;;;;9.22;59.70;101115.31;4277938;33;20255;-87
2022/02/27 09:43:50;;;;;;;;;;;;;;;9.07;59.69;101114.56;4303239;33;19985;-86
2022/02/27 09:46:16;;;;;;;;;;;;;;;8.95;59.68;101112.84;4290070;33;19992;-86
2022/02/27 09:48:41;;;;;;;;;;;;;;;8.97;59.69;101123.22;4303217;33;20003;-86
2022/02/27 09:51:06;;;;;;;;;;;;;;;9.09;59.69;101110.22;4289832;33;20015;-87
2022/02/27 09:53:31;;;;;;;;;;;;;;;9.21;59.70;101108.41;4288973;33;20014;-83
2022/02/27 09:55:57;;;;;;;;;;;;;;;9.27;59.71;101117.06;4289345;33;20402;-84
2022/02/27 09:58:22;;;;;;;;;;;;;;;9.17;59.70;101124.03;4289272;33;20346;-84
2022/02/27 10:00:47;;;;;;;;;;;;;;;8.88;59.68;101122.41;4301065;33;22049;-84
2022/02/27 10:03:13;;;;;;;;;;;;;;;9.12;59.70;101120.59;4302563;33;20019;-83
2022/02/27 10:05:45;;;;;;;;;;;;;;;9.38;59.71;101121.31;4288942;33;19991;-84
2022/02/27 10:08:10;;;;;;;;;;;;;;;9.43;59.72;101121.28;4288996;33;20108;-83
2022/02/27 10:10:36;;;;;;;;;;;;;;;9.29;59.71;101118.78;4302460;33;20345;-84
2022/02/27 10:13:01;;;;;;;;;;;;;;;9.34;59.71;101106.62;4288900;33;19981;-83
2022/02/27 10:15:27;;;;;;;;;;;;;;;9.45;59.72;101107.41;4302171;33;19980;-85
2022/02/27 10:17:53;;;;;;;;;;;;;;;9.60;59.72;101100.41;4289241;33;20026;-84
2022/02/27 10:20:19;;;;;;;;;;;;;;;9.59;59.72;101104.75;4302404;33;19989;-85
2022/02/27 10:22:48;;;;;;;;;;;;;;;9.68;59.73;101107.28;4302638;33;20352;-83
2022/02/27 10:25:23;;;;;;;;;;;;;;;9.78;59.73;101105.50;4302641;33;20060;-83
2022/02/27 10:27:49;;;;;;;;;;;;;;;9.65;59.73;101098.63;4302597;33;20019;-83
2022/02/27 10:30:19;;;;;;;;;;;;;;;9.69;59.73;101102.94;4289292;33;19985;-84
2022/02/27 10:32:47;;;;;;;;;;;;;;;9.77;59.73;101101.16;4301031;33;20044;-84
2022/02/27 10:35:31;;;;;;;;;;;;;;;9.82;59.74;101095.06;4302270;33;19976;-84
2022/02/27 10:37:56;;;;;;;;;;;;;;;9.99;59.75;101097.53;4304224;33;20002;-83
2022/02/27 10:40:54;;;;;;;;;;;;;;;10.12;59.75;101095.69;4303673;33;20061;-83
2022/02/27 10:43:20;;;;;;;;;;;;;;;10.19;59.76;101099.97;4286573;33;19997;-84
2022/02/27 10:45:45;;;;;;;;;;;;;;;10.21;59.75;101090.44;4302964;33;20641;-84
2022/02/27 10:48:14;;;;;;;;;;;;;;;10.30;59.76;101085.13;4291007;33;20012;-84
2022/02/27 10:50:39;;;;;;;;;;;;;;;10.25;59.77;101092.13;4291046;33;20035;-84
2022/02/27 10:53:05;;;;;;;;;;;;;;;10.26;59.77;101087.78;4304088;33;20018;-83
2022/02/27 10:55:33;;;;;;;;;;;;;;;10.28;59.76;101073.87;4304112;33;20020;-84
2022/02/27 10:57:59;;;;;;;;;;;;;;;10.49;59.78;101085.81;4290957;33;19992;-82
2022/02/27 11:00:34;;;;;;;;;;;;;;;10.53;59.77;101071.03;4291059;33;20020;-84
2022/02/27 11:02:59;;;;;;;;;;;;;;;10.65;59.78;101060.50;4291034;33;20050;-84
2022/02/27 11:05:28;;;;;;;;;;;;;;;10.89;59.79;101055.00;4304290;33;20000;-82
2022/02/27 11:07:55;;;;;;;;;;;;;;;10.80;59.79;101054.22;4290970;33;19996;-81
2022/02/27 11:10:20;;;;;;;;;;;;;;;10.77;59.80;101056.00;4303121;33;20042;-80
2022/02/27 11:12:46;;;;;;;;;;;;;;;10.72;59.79;101051.72;4304393;33;20083;-81
2022/02/27 11:15:12;;;;;;;;;;;;;;;10.85;59.79;101047.22;4304128;33;19994;-81
2022/02/27 11:17:37;;;;;;;;;;;;;;;10.76;59.79;101056.88;4304347;33;19988;-80
2022/02/27 11:20:04;;;;;;;;;;;;;;;10.56;59.78;101052.75;4304329;33;20379;-79
2022/02/27 11:22:29;;;;;;;;;;;;;;;10.58;59.78;101059.69;4304339;33;20028;-79
2022/02/27 11:24:57;;;;;;;;;;;;;;;10.47;59.78;101045.06;4290193;33;20064;-79
2022/02/27 11:27:27;;;;;;;;;;;;;;;10.46;59.77;101033.78;4304089;33;20382;-81
2022/02/27 11:29:53;;;;;;;;;;;;;;;10.54;59.78;101021.53;4291214;33;20291;-80
2022/02/27 11:32:18;;;;;;;;;;;;;;;10.86;59.79;101022.88;4290632;33;20028;-79
2022/02/27 11:34:43;;;;;;;;;;;;;;;11.03;59.81;101023.53;4290587;33;20008;-79
2022/02/27 11:37:08;;;;;;;;;;;;;;;11.11;59.81;101018.22;4303980;33;19999;-79
2022/02/27 11:42:36;;;;;;;;;;;;;;;11.08;59.81;101014.75;4292419;33;20064;-80
2022/02/27 11:45:02;;;;;;;;;;;;;;;11.16;59.82;101006.00;4303804;33;19981;-82
2022/02/27 11:47:27;;;;;;;;;;;;;;;11.28;59.82;101009.28;4303498;33;20043;-81
2022/02/27 11:49:52;;;;;;;;;;;;;;;11.35;59.83;101002.22;4290138;33;19985;-81
2022/02/27 11:52:19;;;;;;;;;;;;;;;11.17;59.81;101011.19;4289844;33;19992;-82
2022/02/27 11:54:52;;;;;;;;;;;;;;;10.91;59.80;101000.28;4303844;33;19976;-82
2022/02/27 11:57:18;;;;;;;;;;;;;;;10.81;59.79;101003.84;4290543;33;19997;-81
2022/02/27 11:59:46;;;;;;;;;;;;;;;10.95;59.80;100991.53;4303658;33;20008;-80
2022/02/27 12:02:23;;;;;;;;;;;;;;;11.18;59.81;100989.44;4303729;33;19994;-79
2022/02/27 12:04:49;;;;;;;;;;;;;;;11.25;59.82;100975.44;4303789;33;19984;-82
2022/02/27 12:07:15;;;;;;;;;;;;;;;11.49;59.83;100992.44;4290382;33;19993;-81
2022/02/27 12:09:49;;;;;;;;;;;;;;;11.35;59.82;100987.44;4289982;33;20270;-79
2022/02/27 12:12:31;;;;;;;;;;;;;;;11.53;59.84;100980.22;4302238;33;19985;-84
2022/02/27 12:15:15;;;;;;;;;;;;;;;11.56;59.83;100965.38;4289622;33;19977;-83
2022/02/27 12:17:53;;;;;;;;;;;;;;;11.64;59.84;100968.72;4289245;33;20361;-82
2022/02/27 12:20:36;;;;;;;;;;;;;;;11.66;59.85;100974.78;4303182;33;19992;-84
2022/02/27 12:23:01;;;;;;;;;;;;;;;11.64;59.84;100978.31;4302100;33;20004;-83
2022/02/27 12:25:34;;;;;;;;;;;;;;;11.52;59.83;100988.91;4289557;33;20011;-83
2022/02/27 12:27:59;;;;;;;;;;;;;;;11.51;59.83;100969.81;4288449;33;20010;-85
2022/02/27 12:30:24;;;;;;;;;;;;;;;11.43;59.83;100965.63;4289053;33;20040;-85
2022/02/27 12:32:49;;;;;;;;;;;;;;;11.45;59.84;100963.84;4289730;33;20000;-85
2022/02/27 12:35:15;;;;;;;;;;;;;;;11.30;59.82;100965.78;4289462;33;20035;-85
2022/02/27 12:37:40;;;;;;;;;;;;;;;11.27;59.82;100963.25;4289647;33;20007;-85
2022/02/27 12:40:06;;;;;;;;;;;;;;;11.29;59.81;100963.22;4289796;33;19985;-85
2022/02/27 12:42:33;;;;;;;;;;;;;;;11.33;59.83;100955.31;4289614;33;20007;-85